createdAt,value
2018-02-01T00:02:21.733Z,3.85
2018-02-01T00:04:50.066Z,6.85
2018-02-01T00:07:18.378Z,16.40
2018-02-01T00:09:46.714Z,3.37
2018-02-01T00:12:15.026Z,4.32
2018-02-01T00:14:43.393Z,5.60
2018-02-01T00:17:11.674Z,10.05
2018-02-01T00:19:40.008Z,5.87
2018-02-01T00:22:08.314Z,5.10
2018-02-01T00:24:36.645Z,11.55
2018-02-01T00:27:04.961Z,5.90
2018-02-01T00:29:33.288Z,15.10
2018-02-01T00:32:01.599Z,6.37
2018-02-01T00:34:29.929Z,6.60
2018-02-01T00:36:58.241Z,9.73
2018-02-01T00:39:26.578Z,8.05
2018-02-01T00:41:54.881Z,5.57
2018-02-01T00:44:23.212Z,5.87
2018-02-01T00:46:51.518Z,7.05
2018-02-01T00:49:19.858Z,10.90
2018-02-01T00:51:48.169Z,8.73
2018-02-01T00:54:16.493Z,4.10
2018-02-01T00:56:44.809Z,13.75
2018-02-01T00:59:13.149Z,10.85
2018-02-01T01:01:41.463Z,7.12
2018-02-01T01:04:09.782Z,8.85
2018-02-01T01:06:38.113Z,12.50
2018-02-01T01:09:06.425Z,5.87
2018-02-01T01:11:34.762Z,10.88
2018-02-01T01:14:03.077Z,8.02
2018-02-01T01:16:31.411Z,14.50
2018-02-01T01:18:59.721Z,7.70
2018-02-01T01:21:28.059Z,15.60
2018-02-01T01:23:56.381Z,10.63
2018-02-01T01:26:24.718Z,7.12
2018-02-01T01:28:53.034Z,16.70
2018-02-01T01:31:21.365Z,9.63
2018-02-01T01:33:49.682Z,16.23
2018-02-01T01:36:18.022Z,10.50
2018-02-01T01:38:46.337Z,9.77
2018-02-01T01:41:14.682Z,19.17
2018-02-01T01:43:42.994Z,10.60
2018-02-01T01:46:11.330Z,7.05
2018-02-01T01:48:39.637Z,18.87
2018-02-01T01:51:07.973Z,15.02
2018-02-01T01:53:36.289Z,12.20
2018-02-01T01:56:04.625Z,8.27
2018-02-01T01:58:32.944Z,16.42
2018-02-01T02:01:01.273Z,6.50
2018-02-01T02:03:29.590Z,9.60
2018-02-01T02:05:57.914Z,9.60
2018-02-01T02:08:26.230Z,10.25
2018-02-01T02:10:54.565Z,12.00
2018-02-01T02:13:22.882Z,11.70
2018-02-01T02:15:51.225Z,13.20
2018-02-01T02:18:19.534Z,18.05
2018-02-01T02:20:47.874Z,9.90
2018-02-01T02:23:16.182Z,24.95
2018-02-01T02:25:44.517Z,15.15
2018-02-01T02:28:12.834Z,18.92
2018-02-01T02:30:41.173Z,20.30
2018-02-01T02:33:09.494Z,17.75
2018-02-01T02:35:38.162Z,22.73
2018-02-01T02:38:07.370Z,22.98
2018-02-01T02:40:35.709Z,25.08
2018-02-01T02:43:04.050Z,16.50
2018-02-01T02:45:32.362Z,24.45
2018-02-01T02:48:00.678Z,19.30
2018-02-01T02:50:29.018Z,25.60
2018-02-01T02:52:57.329Z,15.45
2018-02-01T02:55:25.669Z,28.50
2018-02-01T02:57:53.985Z,21.75
2018-02-01T03:00:22.325Z,23.65
2018-02-01T03:02:50.642Z,22.92
2018-02-01T03:05:18.958Z,30.25
2018-02-01T03:07:47.293Z,24.92
2018-02-01T03:10:15.611Z,27.30
2018-02-01T03:12:43.949Z,23.65
2018-02-01T03:15:12.266Z,37.90
2018-02-01T03:17:40.605Z,28.67
2018-02-01T03:20:08.918Z,21.87
2018-02-01T03:22:37.253Z,18.48
2018-02-01T03:25:05.573Z,33.97
2018-02-01T03:27:33.907Z,23.25
2018-02-01T03:30:02.222Z,26.95
2018-02-01T03:32:30.558Z,34.75
2018-02-01T03:34:58.875Z,17.60
2018-02-01T03:37:27.213Z,19.30
2018-02-01T03:39:55.525Z,28.83
2018-02-01T03:42:23.857Z,32.65
2018-02-01T03:44:52.177Z,23.17
2018-02-01T03:47:20.522Z,32.38
2018-02-01T03:49:48.843Z,21.33
2018-02-01T03:52:17.177Z,25.37
2018-02-01T03:54:45.494Z,19.30
2018-02-01T03:57:13.838Z,23.42
2018-02-01T03:59:42.154Z,30.77
2018-02-01T04:02:10.485Z,18.90
2018-02-01T04:04:38.802Z,29.70
2018-02-01T04:07:07.141Z,24.95
2018-02-01T04:09:35.468Z,25.88
2018-02-01T04:12:03.807Z,43.67
2018-02-01T04:14:32.122Z,21.60
2018-02-01T04:17:00.464Z,21.80
2018-02-01T04:19:28.778Z,30.45
2018-02-01T04:21:57.113Z,27.80
2018-02-01T04:24:25.437Z,26.42
2018-02-01T04:26:53.787Z,28.73
2018-02-01T04:29:22.102Z,25.35
2018-02-01T04:31:50.437Z,22.48
2018-02-01T04:34:18.759Z,25.42
2018-02-01T04:36:47.104Z,25.85
2018-02-01T04:39:15.417Z,24.63
2018-02-01T04:41:43.758Z,20.62
2018-02-01T04:44:12.078Z,34.78
2018-02-01T04:46:40.421Z,40.83
2018-02-01T04:49:08.742Z,30.77
2018-02-01T04:51:37.085Z,28.17
2018-02-01T04:54:05.406Z,29.40
2018-02-01T04:56:33.751Z,25.35
2018-02-01T04:59:02.082Z,22.65
2018-02-01T05:01:30.421Z,31.10
2018-02-01T05:03:58.742Z,34.92
2018-02-01T05:06:27.059Z,29.10
2018-02-01T05:08:55.397Z,65.25
2018-02-01T05:11:23.719Z,27.37
2018-02-01T05:13:52.058Z,46.47
2018-02-01T05:16:20.377Z,36.20
2018-02-01T05:18:48.714Z,39.38
2018-02-01T05:21:17.029Z,22.75
2018-02-01T05:23:45.373Z,23.20
2018-02-01T05:26:13.694Z,30.62
2018-02-01T05:28:42.038Z,23.60
2018-02-01T05:31:10.361Z,27.23
2018-02-01T05:33:38.709Z,31.00
2018-02-01T05:36:07.026Z,36.07
2018-02-01T05:38:35.373Z,37.77
2018-02-01T05:41:03.705Z,24.57
2018-02-01T05:43:32.059Z,31.45
2018-02-01T05:46:01.479Z,36.53
2018-02-01T05:48:29.974Z,28.77
2018-02-01T05:50:58.318Z,29.90
2018-02-01T05:53:26.653Z,36.20
2018-02-01T05:55:54.977Z,28.60
2018-02-01T05:58:23.333Z,28.03
2018-02-01T06:00:51.640Z,39.27
2018-02-01T06:03:19.981Z,32.20
2018-02-01T06:05:48.313Z,36.20
2018-02-01T06:08:17.445Z,36.83
2018-02-01T06:10:45.766Z,29.30
2018-02-01T06:13:14.846Z,19.95
2018-02-01T06:15:44.279Z,33.20
2018-02-01T06:18:19.827Z,27.42
2018-02-01T06:20:58.492Z,46.85
2018-02-01T06:23:41.321Z,25.30
2018-02-01T06:26:12.186Z,30.17
2018-02-01T06:28:40.808Z,24.00
2018-02-01T06:31:09.116Z,26.03
2018-02-01T06:33:37.458Z,26.70
2018-02-01T06:36:05.779Z,23.17
2018-02-01T06:38:34.114Z,30.30
2018-02-01T06:41:02.438Z,29.60
2018-02-01T06:43:30.778Z,42.38
2018-02-01T06:45:59.181Z,26.90
2018-02-01T06:48:27.521Z,25.13
2018-02-01T06:50:55.841Z,37.73
2018-02-01T06:53:24.246Z,32.10
2018-02-01T06:55:53.509Z,20.63
2018-02-01T06:58:21.847Z,29.17
2018-02-01T07:00:54.016Z,28.20
2018-02-01T07:03:22.354Z,15.43
2018-02-01T07:05:50.673Z,14.43
2018-02-01T07:08:19.014Z,30.83
2018-02-01T07:10:47.330Z,31.63
2018-02-01T07:13:15.673Z,17.40
2018-02-01T07:15:43.994Z,18.00
2018-02-01T07:18:12.342Z,17.33
2018-02-01T07:20:42.614Z,29.42
2018-02-01T07:23:10.958Z,21.60
2018-02-01T07:25:39.276Z,24.60
2018-02-01T07:28:07.618Z,15.75
2018-02-01T07:30:35.937Z,22.67
2018-02-01T07:33:04.278Z,15.80
2018-02-01T07:35:32.593Z,18.90
2018-02-01T07:38:00.932Z,13.37
2018-02-01T07:40:29.246Z,13.67
2018-02-01T07:42:57.590Z,15.00
2018-02-01T07:45:35.810Z,21.30
2018-02-01T07:48:04.171Z,27.60
2018-02-01T07:50:32.502Z,18.83
2018-02-01T07:53:00.801Z,13.73
2018-02-01T07:55:29.147Z,19.80
2018-02-01T07:57:57.462Z,16.20
2018-02-01T08:00:25.802Z,16.23
2018-02-01T08:02:54.127Z,20.23
2018-02-01T08:05:22.458Z,13.47
2018-02-01T08:07:50.778Z,33.67
2018-02-01T08:10:19.126Z,17.50
2018-02-01T08:12:47.442Z,18.00
2018-02-01T08:15:15.777Z,12.30
2018-02-01T08:17:44.094Z,18.83
2018-02-01T08:20:12.436Z,14.17
2018-02-01T08:22:40.753Z,17.60
2018-02-01T08:25:09.102Z,19.00
2018-02-01T08:27:37.417Z,20.75
2018-02-01T08:30:05.763Z,21.30
2018-02-01T08:32:34.085Z,15.70
2018-02-01T08:35:02.418Z,31.33
2018-02-01T08:37:30.742Z,22.93
2018-02-01T08:39:59.078Z,16.73
2018-02-01T08:42:27.397Z,23.50
2018-02-01T08:44:55.737Z,30.50
2018-02-01T08:47:24.049Z,18.85
2018-02-01T08:49:52.385Z,17.08
2018-02-01T08:52:20.711Z,23.07
2018-02-01T08:54:49.037Z,27.07
2018-02-01T08:57:17.481Z,10.55
2018-02-01T08:59:45.819Z,19.63
2018-02-01T09:02:14.133Z,29.43
2018-02-01T09:04:42.469Z,16.30
2018-02-01T09:07:10.791Z,23.53
2018-02-01T09:09:39.121Z,24.73
2018-02-01T09:12:07.443Z,28.08
2018-02-01T09:14:35.784Z,19.30
2018-02-01T09:17:04.093Z,24.83
2018-02-01T09:19:32.460Z,34.20
2018-02-01T09:22:00.757Z,9.85
2018-02-01T09:24:29.097Z,15.57
2018-02-01T09:26:57.613Z,26.10
2018-02-01T09:29:25.958Z,17.52
2018-02-01T09:31:54.453Z,15.70
2018-02-01T09:34:23.015Z,16.17
2018-02-01T09:36:51.817Z,23.90
2018-02-01T09:39:20.165Z,22.27
2018-02-01T09:41:48.486Z,20.17
2018-02-01T09:44:16.982Z,20.35
2018-02-01T09:46:45.283Z,23.35
2018-02-01T09:49:13.697Z,12.03
2018-02-01T09:51:42.017Z,18.90
2018-02-01T09:54:10.341Z,14.32
2018-02-01T09:56:38.674Z,30.77
2018-02-01T09:59:07.002Z,22.27
2018-02-01T10:01:35.344Z,18.03
2018-02-01T10:04:03.657Z,14.83
2018-02-01T10:06:32.006Z,15.13
2018-02-01T10:09:00.366Z,16.77
2018-02-01T10:11:28.700Z,27.77
2018-02-01T10:13:57.035Z,22.30
2018-02-01T10:16:25.417Z,18.83
2018-02-01T10:18:54.221Z,12.27
2018-02-01T10:21:22.554Z,16.47
2018-02-01T10:23:50.874Z,28.40
2018-02-01T10:26:19.217Z,12.80
2018-02-01T10:28:47.533Z,18.08
2018-02-01T10:31:15.873Z,16.08
2018-02-01T10:33:44.190Z,19.30
2018-02-01T10:36:12.530Z,10.10
2018-02-01T10:38:40.844Z,12.20
2018-02-01T10:41:10.087Z,18.85
2018-02-01T10:43:38.401Z,16.17
2018-02-01T10:46:07.661Z,18.25
2018-02-01T10:48:36.147Z,13.27
2018-02-01T10:51:04.514Z,16.57
2018-02-01T10:53:32.884Z,6.37
2018-02-01T10:56:01.217Z,24.37
2018-02-01T10:58:29.530Z,10.67
2018-02-01T11:00:57.870Z,9.13
2018-02-01T11:03:26.202Z,11.77
2018-02-01T11:05:54.534Z,21.93
2018-02-01T11:08:22.853Z,22.58
2018-02-01T11:10:51.194Z,12.85
2018-02-01T11:13:19.570Z,10.37
2018-02-01T11:15:47.905Z,17.03
2018-02-01T11:18:16.225Z,12.50
2018-02-01T11:20:44.623Z,10.93
2018-02-01T11:23:12.934Z,24.30
2018-02-01T11:25:42.210Z,13.50
2018-02-01T11:28:10.534Z,18.15
2018-02-01T11:30:38.903Z,13.37
2018-02-01T11:33:07.222Z,15.87
2018-02-01T11:35:35.562Z,18.48
2018-02-01T11:38:03.881Z,13.40
2018-02-01T11:40:32.242Z,10.83
2018-02-01T11:43:00.595Z,10.17
2018-02-01T11:45:28.943Z,11.15
2018-02-01T11:47:57.256Z,14.20
2018-02-01T11:50:25.594Z,42.60
2018-02-01T11:52:53.913Z,13.23
2018-02-01T11:55:22.249Z,8.50
2018-02-01T11:57:50.566Z,7.13
2018-02-01T12:00:18.886Z,11.00
2018-02-01T12:02:47.227Z,16.77
2018-02-01T12:05:15.547Z,23.33
2018-02-01T12:07:43.886Z,10.77
2018-02-01T12:10:12.317Z,6.60
2018-02-01T12:12:41.559Z,6.82
2018-02-01T12:15:09.873Z,11.07
2018-02-01T12:17:38.222Z,14.67
2018-02-01T12:20:06.542Z,14.20
2018-02-01T12:22:34.886Z,10.10
2018-02-01T12:25:03.214Z,8.57
2018-02-01T12:27:31.537Z,2.92
2018-02-01T12:29:59.870Z,9.87
2018-02-01T12:32:28.205Z,11.70
2018-02-01T12:34:56.517Z,13.40
2018-02-01T12:37:24.853Z,10.80
2018-02-01T12:39:53.214Z,10.93
2018-02-01T12:42:21.553Z,15.85
2018-02-01T12:44:49.925Z,13.70
2018-02-01T12:47:18.280Z,14.13
2018-02-01T12:49:46.599Z,25.40
2018-02-01T12:52:14.934Z,11.03
2018-02-01T12:54:43.253Z,14.37
2018-02-01T12:57:11.586Z,15.23
2018-02-01T12:59:39.931Z,17.50
2018-02-01T13:02:08.265Z,12.73
2018-02-01T13:04:36.577Z,8.60
2018-02-01T13:07:04.909Z,20.90
2018-02-01T13:09:33.222Z,8.63
2018-02-01T13:12:01.548Z,16.63
2018-02-01T13:14:29.857Z,6.90
2018-02-01T13:16:58.193Z,21.73
2018-02-01T13:19:26.513Z,10.67
2018-02-01T13:21:54.850Z,14.48
2018-02-01T13:24:23.158Z,3.33
2018-02-01T13:26:51.506Z,10.32
2018-02-01T13:29:21.132Z,17.17
2018-02-01T13:31:49.656Z,12.17
2018-02-01T13:34:18.148Z,19.67
2018-02-01T13:36:49.681Z,12.47
2018-02-01T13:39:19.603Z,10.60
2018-02-01T13:41:50.795Z,4.60
2018-02-01T13:44:23.182Z,7.50
2018-02-01T13:46:53.132Z,15.90
2018-02-01T13:49:23.202Z,15.63
2018-02-01T13:51:51.597Z,21.17
2018-02-01T13:54:19.934Z,17.52
2018-02-01T13:56:48.279Z,9.87
2018-02-01T13:59:16.885Z,6.03
2018-02-01T14:01:45.375Z,10.30
2018-02-01T14:04:13.966Z,10.30
2018-02-01T14:06:42.587Z,12.53
2018-02-01T14:09:12.381Z,7.33
2018-02-01T14:11:41.009Z,7.32
2018-02-01T14:14:11.006Z,12.40
2018-02-01T14:16:42.768Z,5.22
2018-02-01T14:19:11.459Z,6.70
2018-02-01T14:21:40.038Z,17.30
2018-02-01T14:24:08.588Z,6.97
2018-02-01T14:26:36.942Z,10.73
2018-02-01T14:29:05.509Z,8.10
2018-02-01T14:31:34.174Z,10.90
2018-02-01T14:34:02.664Z,7.67
2018-02-01T14:36:31.213Z,17.30
2018-02-01T14:38:59.832Z,14.80
2018-02-01T14:41:28.210Z,9.57
2018-02-01T14:43:56.585Z,14.53
2018-02-01T14:46:25.027Z,10.23
2018-02-01T14:48:53.435Z,20.97
2018-02-01T14:51:21.915Z,19.73
2018-02-01T14:53:51.771Z,10.23
2018-02-01T14:56:23.046Z,16.40
2018-02-01T14:58:52.585Z,10.88
2018-02-01T15:01:20.922Z,9.40
2018-02-01T15:03:49.253Z,23.23
2018-02-01T15:06:17.579Z,19.15
2018-02-01T15:08:45.911Z,10.07
2018-02-01T15:11:14.226Z,11.63
2018-02-01T15:13:42.565Z,36.70
2018-02-01T15:16:11.777Z,8.60
2018-02-01T15:18:40.110Z,16.30
2018-02-01T15:21:08.421Z,14.90
2018-02-01T15:23:36.761Z,15.18
2018-02-01T15:26:06.004Z,17.47
2018-02-01T15:28:34.341Z,16.90
2018-02-01T15:31:02.755Z,11.70
2018-02-01T15:33:31.093Z,10.13
2018-02-01T15:35:59.401Z,12.63
2018-02-01T15:38:27.741Z,16.67
2018-02-01T15:40:56.049Z,15.17
2018-02-01T15:43:24.385Z,12.40
2018-02-01T15:45:52.706Z,23.50
2018-02-01T15:48:21.053Z,26.37
2018-02-01T15:50:49.361Z,10.10
2018-02-01T15:53:17.702Z,12.07
2018-02-01T15:55:46.905Z,5.20
2018-02-01T15:58:15.244Z,19.30
2018-02-01T16:00:43.562Z,14.43
2018-02-01T16:03:11.898Z,12.50
2018-02-01T16:05:40.213Z,11.53
2018-02-01T16:08:08.541Z,6.50
2018-02-01T16:10:36.889Z,18.83
2018-02-01T16:13:05.209Z,16.90
2018-02-01T16:15:33.531Z,22.70
2018-02-01T16:18:01.866Z,19.80
2018-02-01T16:20:30.182Z,14.70
2018-02-01T16:22:58.521Z,13.63
2018-02-01T16:25:27.141Z,8.90
2018-02-01T16:27:55.498Z,11.27
2018-02-01T16:30:23.825Z,11.90
2018-02-01T16:32:52.139Z,12.67
2018-02-01T16:35:20.477Z,15.10
2018-02-01T16:37:48.794Z,13.60
2018-02-01T16:40:17.134Z,16.00
2018-02-01T16:42:45.443Z,14.33
2018-02-01T16:45:14.066Z,14.05
2018-02-01T16:47:42.377Z,19.27
2018-02-01T16:50:10.705Z,9.83
2018-02-01T16:52:39.021Z,18.42
2018-02-01T16:55:07.361Z,15.60
2018-02-01T16:57:35.716Z,19.80
2018-02-01T17:00:04.027Z,7.65
2018-02-01T17:02:32.401Z,9.87
2018-02-01T17:05:01.697Z,14.45
2018-02-01T17:07:30.019Z,16.10
2018-02-01T17:09:58.357Z,12.60
2018-02-01T17:12:26.664Z,7.07
2018-02-01T17:14:55.003Z,8.70
2018-02-01T17:17:23.313Z,14.57
2018-02-01T17:19:51.650Z,7.50
2018-02-01T17:22:19.953Z,9.83
2018-02-01T17:24:48.401Z,9.02
2018-02-01T17:27:16.786Z,8.70
2018-02-01T17:29:45.093Z,5.73
2018-02-01T17:32:13.405Z,8.13
2018-02-01T17:34:41.738Z,5.62
2018-02-01T17:37:10.046Z,5.57
2018-02-01T17:39:38.377Z,9.40
2018-02-01T17:42:06.682Z,6.27
2018-02-01T17:44:36.023Z,9.00
2018-02-01T17:47:04.329Z,5.17
2018-02-01T17:49:32.665Z,6.23
2018-02-01T17:52:01.009Z,8.13
2018-02-01T17:54:29.313Z,5.03
2018-02-01T17:56:57.626Z,7.10
2018-02-01T17:59:25.965Z,10.43
2018-02-01T18:01:54.277Z,12.87
2018-02-01T18:04:22.945Z,8.57
2018-02-01T18:06:51.254Z,10.53
2018-02-01T18:09:19.592Z,5.60
2018-02-01T18:11:47.893Z,6.07
2018-02-01T18:14:16.222Z,6.97
2018-02-01T18:16:44.530Z,10.50
2018-02-01T18:19:12.861Z,11.12
2018-02-01T18:21:41.182Z,16.73
2018-02-01T18:24:09.513Z,11.43
2018-02-01T18:26:37.832Z,13.37
2018-02-01T18:29:06.174Z,22.57
2018-02-01T18:31:34.489Z,17.48
2018-02-01T18:34:02.801Z,15.50
2018-02-01T18:36:31.141Z,12.50
2018-02-01T18:38:59.458Z,14.50
2018-02-01T18:41:27.793Z,13.37
2018-02-01T18:43:56.101Z,19.03
2018-02-01T18:46:24.447Z,16.73
2018-02-01T18:48:52.765Z,22.13
2018-02-01T18:51:21.101Z,16.30
2018-02-01T18:53:49.422Z,21.23
2018-02-01T18:56:18.698Z,21.05
2018-02-01T18:58:47.021Z,23.48
2018-02-01T19:01:15.361Z,18.00
2018-02-01T19:03:43.676Z,19.07
2018-02-01T19:06:12.018Z,21.27
2018-02-01T19:08:40.337Z,21.02
2018-02-01T19:11:08.681Z,18.77
2018-02-01T19:13:37.001Z,14.90
2018-02-01T19:16:05.341Z,15.55
2018-02-01T19:18:33.665Z,23.10
2018-02-01T19:21:02.110Z,18.37
2018-02-01T19:23:30.397Z,17.13
2018-02-01T19:25:59.625Z,22.70
2018-02-01T19:28:27.941Z,15.15
2018-02-01T19:30:56.329Z,19.77
2018-02-01T19:33:24.630Z,13.80
2018-02-01T19:35:52.961Z,19.17
2018-02-01T19:38:21.282Z,22.40
2018-02-01T19:40:49.741Z,14.93
2018-02-01T19:43:18.045Z,18.53
2018-02-01T19:45:47.358Z,14.37
2018-02-01T19:48:15.693Z,18.80
2018-02-01T19:50:44.034Z,20.98
2018-02-01T19:53:12.346Z,19.27
2018-02-01T19:55:41.721Z,18.43
2018-02-01T19:58:10.030Z,17.63
2018-02-01T20:00:38.369Z,17.30
2018-02-01T20:03:06.992Z,31.37
2018-02-01T20:05:35.329Z,28.35
2018-02-01T20:08:03.650Z,21.97
2018-02-01T20:10:31.990Z,23.60
2018-02-01T20:13:00.310Z,22.20
2018-02-01T20:15:28.650Z,21.87
2018-02-01T20:17:56.981Z,19.58
2018-02-01T20:20:25.317Z,19.20
2018-02-01T20:22:53.686Z,22.87
2018-02-01T20:25:21.985Z,31.57
2018-02-01T20:27:50.364Z,23.23
2018-02-01T20:30:18.685Z,31.73
2018-02-01T20:32:47.019Z,19.77
2018-02-01T20:35:15.349Z,25.58
2018-02-01T20:37:43.673Z,23.60
2018-02-01T20:40:11.993Z,30.63
2018-02-01T20:42:40.342Z,23.73
2018-02-01T20:45:08.661Z,34.53
2018-02-01T20:47:37.013Z,25.87
2018-02-01T20:50:05.337Z,24.67
2018-02-01T20:52:33.683Z,31.45
2018-02-01T20:55:02.015Z,21.60
2018-02-01T20:57:30.357Z,23.50
2018-02-01T20:59:58.678Z,32.33
2018-02-01T21:02:27.021Z,22.92
2018-02-01T21:04:55.353Z,21.43
2018-02-01T21:07:23.695Z,25.17
2018-02-01T21:09:52.013Z,28.57
2018-02-01T21:12:20.357Z,24.53
2018-02-01T21:14:48.678Z,27.37
2018-02-01T21:17:17.050Z,68.90
2018-02-01T21:19:45.369Z,34.93
2018-02-01T21:22:13.709Z,22.27
2018-02-01T21:24:42.033Z,25.17
2018-02-01T21:27:10.423Z,27.23
2018-02-01T21:29:38.737Z,28.50
2018-02-01T21:32:07.191Z,25.87
2018-02-01T21:34:35.542Z,26.60
2018-02-01T21:37:03.942Z,32.13
2018-02-01T21:39:32.257Z,32.63
2018-02-01T21:42:00.601Z,34.40
2018-02-01T21:44:28.922Z,28.10
2018-02-01T21:46:57.269Z,27.67
2018-02-01T21:49:28.312Z,28.70
2018-02-01T21:51:56.653Z,26.10
2018-02-01T21:54:24.977Z,26.80
2018-02-01T21:56:53.331Z,34.60
2018-02-01T21:59:21.633Z,24.40
2018-02-01T22:01:49.978Z,44.17
2018-02-01T22:04:18.297Z,35.03
2018-02-01T22:06:46.638Z,75.05
2018-02-01T22:09:14.953Z,27.55
2018-02-01T22:11:43.293Z,40.80
2018-02-01T22:14:11.612Z,30.65
2018-02-01T22:16:39.949Z,28.65
2018-02-01T22:19:08.273Z,45.67
2018-02-01T22:21:36.609Z,23.62
2018-02-01T22:24:04.925Z,30.50
2018-02-01T22:26:33.261Z,33.33
2018-02-01T22:29:01.581Z,33.05
2018-02-01T22:31:29.912Z,31.73
2018-02-01T22:33:58.237Z,28.58
2018-02-01T22:36:26.570Z,29.37
2018-02-01T22:38:54.887Z,39.60
2018-02-01T22:41:23.201Z,30.17
2018-02-01T22:43:51.542Z,24.83
2018-02-01T22:46:19.857Z,28.92
2018-02-01T22:48:48.192Z,27.67
2018-02-01T22:51:16.514Z,27.98
2018-02-01T22:53:44.853Z,27.00
2018-02-01T22:56:13.169Z,32.03
2018-02-01T22:58:41.501Z,32.08
2018-02-01T23:01:09.821Z,32.15
2018-02-01T23:03:38.161Z,26.67
2018-02-01T23:06:06.477Z,32.40
2018-02-01T23:08:34.818Z,30.98
2018-02-01T23:11:03.160Z,41.08
2018-02-01T23:13:31.465Z,24.00
2018-02-01T23:15:59.785Z,25.80
2018-02-01T23:18:28.125Z,36.42
2018-02-01T23:20:56.441Z,27.40
2018-02-01T23:23:24.772Z,31.33
2018-02-01T23:25:53.093Z,24.12
2018-02-01T23:28:21.458Z,24.40
2018-02-01T23:30:49.745Z,34.92
2018-02-01T23:33:18.086Z,43.15
2018-02-01T23:35:46.401Z,33.13
2018-02-01T23:38:14.737Z,40.40
2018-02-01T23:40:43.057Z,28.42
2018-02-01T23:43:11.389Z,29.50
2018-02-01T23:45:39.713Z,39.78
2018-02-01T23:48:08.054Z,34.72
2018-02-01T23:50:36.374Z,27.58
2018-02-01T23:53:04.725Z,37.42
2018-02-01T23:55:33.026Z,29.08
2018-02-01T23:58:01.366Z,52.03
